Terminal Aerodrome Forecast
Issued by NWS Spokane, WA

Home | Current Version | Previous Version | Text Only | Print | Product List | Glossary On
Versions: 1 2 3 4 5 6 7 8 9 10 11 12 13 14 15 16 17 18 19 20 21 22 23 24 25 26 27 28
000
FTUS46 KOTX 250529
TAFGEG
TAF
KGEG 250529Z 2506/2606 36005KT P6SM SCT080 BKN120
     FM251500 18006KT P6SM BKN050 OVC100
     FM252100 23008KT P6SM VCSH SCT060 BKN150
     FM260200 34004KT P6SM BKN150=

USA.gov is the U.S. government's official web portal to all federal, state and local government web resources and services.